createdAt,value
2022-10-22T00:00:28.927Z,11.48
2022-10-22T00:03:31.311Z,11.51
2022-10-22T00:06:33.946Z,11.52
2022-10-22T00:09:36.283Z,11.57
2022-10-22T00:12:38.594Z,11.58
2022-10-22T00:15:40.978Z,11.56
2022-10-22T00:18:43.093Z,11.57
2022-10-22T00:21:45.443Z,11.58
2022-10-22T00:24:47.519Z,11.55
2022-10-22T00:27:49.873Z,11.64
2022-10-22T00:30:59.563Z,11.58
2022-10-22T00:34:02.514Z,11.54
2022-10-22T00:37:04.571Z,11.59
2022-10-22T00:40:07.607Z,11.55
2022-10-22T00:43:12.430Z,11.53
2022-10-22T00:46:14.780Z,11.53
2022-10-22T00:49:16.870Z,11.51
2022-10-22T00:52:19.836Z,11.53
2022-10-22T00:55:23.716Z,11.61
2022-10-22T00:58:29.922Z,11.62
2022-10-22T01:01:32.256Z,11.73
2022-10-22T01:04:34.646Z,11.64
2022-10-22T01:07:43.305Z,11.64
2022-10-22T01:11:12.390Z,11.64
2022-10-22T01:14:44.885Z,11.66
2022-10-22T01:18:00.314Z,11.59
2022-10-22T01:21:11.357Z,11.58
2022-10-22T01:24:34.886Z,11.61
2022-10-22T01:27:49.090Z,11.67
2022-10-22T01:30:54.660Z,11.58
2022-10-22T01:33:58.799Z,11.58
2022-10-22T01:37:03.020Z,11.55
2022-10-22T01:40:07.428Z,11.51
2022-10-22T01:43:11.728Z,11.44
2022-10-22T01:46:15.638Z,11.44
2022-10-22T01:49:27.669Z,11.52
2022-10-22T01:52:42.034Z,11.47
2022-10-22T01:56:02.999Z,11.46
2022-10-22T01:59:23.123Z,11.48
2022-10-22T02:02:49.696Z,11.40
2022-10-22T02:05:56.698Z,11.37
2022-10-22T02:09:00.345Z,11.26
2022-10-22T02:12:06.627Z,11.25
2022-10-22T02:15:10.175Z,11.24
2022-10-22T02:18:14.206Z,11.08
2022-10-22T02:21:16.773Z,11.09
2022-10-22T02:24:19.555Z,10.99
2022-10-22T02:27:27.834Z,10.76
2022-10-22T02:30:33.168Z,10.76
2022-10-22T02:33:42.267Z,10.80
2022-10-22T02:36:49.666Z,10.84
2022-10-22T02:39:53.803Z,10.81
2022-10-22T02:42:56.215Z,10.67
2022-10-22T02:45:58.369Z,10.74
2022-10-22T02:49:00.764Z,10.75
2022-10-22T02:52:02.949Z,10.68
2022-10-22T02:55:07.019Z,10.65
2022-10-22T02:58:09.137Z,10.65
2022-10-22T03:01:15.223Z,10.50
2022-10-22T03:04:18.339Z,10.43
2022-10-22T03:07:20.668Z,10.40
2022-10-22T03:10:22.746Z,10.31
2022-10-22T03:13:25.202Z,10.30
2022-10-22T03:16:27.301Z,10.29
2022-10-22T03:19:29.822Z,10.20
2022-10-22T03:22:33.997Z,10.13
2022-10-22T03:25:36.551Z,9.97
2022-10-22T03:28:40.482Z,9.95
2022-10-22T03:31:42.910Z,9.86
2022-10-22T03:34:44.992Z,9.83
2022-10-22T03:37:47.451Z,10.02
2022-10-22T03:40:49.869Z,10.04
2022-10-22T03:43:53.272Z,9.98
2022-10-22T03:46:58.680Z,9.93
2022-10-22T03:50:05.277Z,9.93
2022-10-22T03:53:10.474Z,9.88
2022-10-22T03:56:13.165Z,9.87
2022-10-22T03:59:15.465Z,9.82
2022-10-22T04:02:17.824Z,9.76
2022-10-22T04:05:20.184Z,9.72
2022-10-22T04:08:22.281Z,9.50
2022-10-22T04:11:24.614Z,9.58
2022-10-22T04:14:26.823Z,9.61
2022-10-22T04:17:34.020Z,9.61
2022-10-22T04:20:36.081Z,9.57
2022-10-22T04:23:38.850Z,9.57
2022-10-22T04:26:41.156Z,9.57
2022-10-22T04:29:43.490Z,9.62
2022-10-22T04:32:45.546Z,9.50
2022-10-22T04:35:47.965Z,9.55
2022-10-22T04:38:58.276Z,9.50
2022-10-22T04:42:03.951Z,9.53
2022-10-22T04:45:06.434Z,9.53
2022-10-22T04:48:08.836Z,9.58
2022-10-22T04:51:16.530Z,9.59
2022-10-22T04:54:19.067Z,9.61
2022-10-22T04:57:21.142Z,9.65
2022-10-22T05:00:23.484Z,9.70
2022-10-22T05:03:25.884Z,9.69
2022-10-22T05:06:30.848Z,9.70
2022-10-22T05:09:32.921Z,9.63
2022-10-22T05:12:35.278Z,9.63
2022-10-22T05:15:37.358Z,9.63
2022-10-22T05:18:42.226Z,9.48
2022-10-22T05:21:44.739Z,9.48
2022-10-22T05:24:48.989Z,9.54
2022-10-22T05:27:51.076Z,9.48
2022-10-22T05:30:54.798Z,9.47
2022-10-22T05:33:57.012Z,9.49
2022-10-22T05:36:59.387Z,9.40
2022-10-22T05:40:12.740Z,9.42
2022-10-22T05:43:23.826Z,9.46
2022-10-22T05:46:30.653Z,9.50
2022-10-22T05:49:33.035Z,9.45
2022-10-22T05:52:35.114Z,9.44
2022-10-22T05:55:40.492Z,9.45
2022-10-22T05:58:44.531Z,9.44
2022-10-22T06:01:46.999Z,9.48
2022-10-22T06:04:49.404Z,9.53
2022-10-22T06:07:51.736Z,9.57
2022-10-22T06:10:54.502Z,9.60
2022-10-22T06:13:56.609Z,9.64
2022-10-22T06:17:00.222Z,9.66
2022-10-22T06:20:02.377Z,9.69
2022-10-22T06:23:04.816Z,9.63
2022-10-22T06:26:07.833Z,9.70
2022-10-22T06:29:10.601Z,9.80
2022-10-22T06:32:12.683Z,9.81
2022-10-22T06:35:15.382Z,9.90
2022-10-22T06:38:17.477Z,9.95
2022-10-22T06:41:20.350Z,9.99
2022-10-22T06:44:23.463Z,10.11
2022-10-22T06:47:25.850Z,10.14
2022-10-22T06:50:27.928Z,10.25
2022-10-22T06:53:31.036Z,10.30
2022-10-22T06:56:33.132Z,10.37
2022-10-22T06:59:35.475Z,10.42
2022-10-22T07:02:37.894Z,10.61
2022-10-22T07:05:40.855Z,10.75
2022-10-22T07:08:43.478Z,10.87
2022-10-22T07:11:46.386Z,10.98
2022-10-22T07:14:49.432Z,11.02
2022-10-22T07:17:51.816Z,11.17
2022-10-22T07:20:53.942Z,11.28
2022-10-22T07:23:56.765Z,11.20
2022-10-22T07:26:58.950Z,11.09
2022-10-22T07:30:01.612Z,11.10
2022-10-22T07:33:04.115Z,10.98
2022-10-22T07:36:10.186Z,10.91
2022-10-22T07:39:12.391Z,11.01
2022-10-22T07:42:14.838Z,11.05
2022-10-22T07:45:17.009Z,11.05
2022-10-22T07:48:19.462Z,11.06
2022-10-22T07:51:21.620Z,11.09
2022-10-22T07:54:24.329Z,11.05
2022-10-22T07:57:26.462Z,11.15
2022-10-22T08:00:28.823Z,11.23
2022-10-22T08:03:32.233Z,11.30
2022-10-22T08:06:34.813Z,11.38
2022-10-22T08:09:37.138Z,11.46
2022-10-22T08:12:40.689Z,11.60
2022-10-22T08:18:45.787Z,11.84
2022-10-22T08:21:48.348Z,12.09
2022-10-22T08:24:50.499Z,12.30
2022-10-22T08:27:52.909Z,12.62
2022-10-22T08:30:55.261Z,12.95
2022-10-22T08:33:57.612Z,13.25
2022-10-22T08:36:59.709Z,13.53
2022-10-22T08:40:02.540Z,13.56
2022-10-22T08:43:22.145Z,13.63
2022-10-22T08:47:00.726Z,13.58
2022-10-22T08:50:03.052Z,13.59
2022-10-22T08:53:15.276Z,13.64
2022-10-22T08:56:17.360Z,13.58
2022-10-22T08:59:26.478Z,13.53
2022-10-22T09:03:00.670Z,13.55
2022-10-22T09:06:19.366Z,13.51
2022-10-22T09:09:21.992Z,13.53
2022-10-22T09:12:26.075Z,13.59
2022-10-22T09:15:28.603Z,13.57
2022-10-22T09:18:39.329Z,13.56
2022-10-22T09:21:44.253Z,13.58
2022-10-22T09:24:48.701Z,13.54
2022-10-22T09:27:52.549Z,13.63
2022-10-22T09:30:54.909Z,13.71
2022-10-22T09:33:59.258Z,13.77
2022-10-22T09:37:06.386Z,13.79
2022-10-22T09:40:15.085Z,13.83
2022-10-22T09:43:18.032Z,13.78
2022-10-22T09:46:24.690Z,13.79
2022-10-22T09:49:32.858Z,13.76
2022-10-22T09:52:35.600Z,13.73
2022-10-22T09:55:39.998Z,13.74
2022-10-22T09:58:49.320Z,13.81
2022-10-22T10:02:08.341Z,13.90
2022-10-22T10:05:26.456Z,13.99
2022-10-22T10:08:28.578Z,13.94
2022-10-22T10:11:41.350Z,13.97
2022-10-22T10:14:54.226Z,13.98
2022-10-22T10:18:21.593Z,13.98
2022-10-22T10:21:36.678Z,14.13
2022-10-22T10:24:52.867Z,14.27
2022-10-22T10:28:48.756Z,14.30
2022-10-22T10:32:23.718Z,14.36
2022-10-22T10:35:31.032Z,14.32
2022-10-22T10:38:56.106Z,14.34
2022-10-22T10:42:26.937Z,14.46
2022-10-22T10:45:44.665Z,14.51
2022-10-22T10:48:59.788Z,14.61
2022-10-22T10:52:36.894Z,14.70
2022-10-22T10:56:03.875Z,14.74
2022-10-22T10:59:19.173Z,14.73
2022-10-22T11:02:33.134Z,14.69
2022-10-22T11:05:55.761Z,14.64
2022-10-22T11:09:07.777Z,14.72
2022-10-22T11:12:23.814Z,14.72
2022-10-22T11:15:33.897Z,14.74
2022-10-22T11:18:49.764Z,14.75
2022-10-22T11:22:33.183Z,14.71
2022-10-22T11:25:44.352Z,14.76
2022-10-22T11:28:50.479Z,14.74
2022-10-22T11:31:55.622Z,14.78
2022-10-22T11:35:05.267Z,14.81
2022-10-22T11:38:14.305Z,14.92
2022-10-22T11:41:19.175Z,14.99
2022-10-22T11:44:23.526Z,15.08
2022-10-22T11:47:28.371Z,15.14
2022-10-22T11:50:48.056Z,15.17
2022-10-22T11:53:56.493Z,15.28
2022-10-22T11:57:18.904Z,15.33
2022-10-22T12:00:40.321Z,15.37
2022-10-22T12:03:58.548Z,15.37
2022-10-22T12:07:02.226Z,15.31
2022-10-22T12:10:18.396Z,15.37
2022-10-22T12:13:24.767Z,15.43
2022-10-22T12:16:54.695Z,15.41
2022-10-22T12:20:03.236Z,15.43
2022-10-22T12:23:09.099Z,15.39
2022-10-22T12:26:26.711Z,15.35
2022-10-22T12:29:32.961Z,15.26
2022-10-22T12:32:37.086Z,15.27
2022-10-22T12:35:45.027Z,15.23
2022-10-22T12:38:47.541Z,15.20
2022-10-22T12:41:49.902Z,15.12
2022-10-22T12:44:56.507Z,15.15
2022-10-22T12:48:01.634Z,15.11
2022-10-22T12:51:08.019Z,15.12
2022-10-22T12:54:20.696Z,15.13
2022-10-22T12:57:24.213Z,15.11
2022-10-22T13:00:32.367Z,15.09
2022-10-22T13:03:39.818Z,15.09
2022-10-22T13:06:48.078Z,15.06
2022-10-22T13:09:56.289Z,15.01
2022-10-22T13:12:59.246Z,15.07
2022-10-22T13:16:25.797Z,15.02
2022-10-22T13:19:50.235Z,14.96
2022-10-22T13:22:58.029Z,14.96
2022-10-22T13:26:04.063Z,15.01
2022-10-22T13:29:14.350Z,15.01
2022-10-22T13:32:30.677Z,15.04
2022-10-22T13:35:36.220Z,15.05
2022-10-22T13:38:39.380Z,15.04
2022-10-22T13:41:41.499Z,15.11
2022-10-22T13:44:43.864Z,15.13
2022-10-22T13:47:51.906Z,15.09
2022-10-22T13:50:54.404Z,15.12
2022-10-22T13:53:57.158Z,15.16
2022-10-22T13:56:59.544Z,15.21
2022-10-22T14:00:01.683Z,15.17
2022-10-22T14:03:17.131Z,15.22
2022-10-22T14:06:21.713Z,15.29
2022-10-22T14:09:23.837Z,15.36
2022-10-22T14:12:26.190Z,15.36
2022-10-22T14:15:29.286Z,15.40
2022-10-22T14:18:33.076Z,15.41
2022-10-22T14:21:37.753Z,15.45
2022-10-22T14:24:40.152Z,15.44
2022-10-22T14:27:42.930Z,15.44
2022-10-22T14:30:46.462Z,15.35
2022-10-22T14:33:49.939Z,15.24
2022-10-22T14:36:52.299Z,15.19
2022-10-22T14:40:01.213Z,15.18
2022-10-22T14:43:03.605Z,15.19
2022-10-22T14:46:05.709Z,15.16
2022-10-22T14:49:08.223Z,15.16
2022-10-22T14:52:12.938Z,15.15
2022-10-22T14:55:19.079Z,15.15
2022-10-22T14:58:21.154Z,15.11
2022-10-22T15:01:23.507Z,15.06
2022-10-22T15:04:27.153Z,15.04
2022-10-22T15:07:29.537Z,15.02
2022-10-22T15:10:31.651Z,14.99
2022-10-22T15:13:35.184Z,14.96
2022-10-22T15:16:37.240Z,14.95
2022-10-22T15:19:39.607Z,14.94
2022-10-22T15:22:41.812Z,14.90
2022-10-22T15:25:44.352Z,14.85
2022-10-22T15:28:46.429Z,14.79
2022-10-22T15:31:51.999Z,14.83
2022-10-22T15:34:54.646Z,14.77
2022-10-22T15:37:57.041Z,14.77
2022-10-22T15:41:05.564Z,14.73
2022-10-22T15:44:14.292Z,14.71
2022-10-22T15:47:16.407Z,14.66
2022-10-22T15:50:18.788Z,14.58
2022-10-22T15:53:20.877Z,14.47
2022-10-22T15:56:24.761Z,14.39
2022-10-22T15:59:26.845Z,14.27
2022-10-22T16:02:29.214Z,14.22
2022-10-22T16:05:31.577Z,14.11
2022-10-22T16:08:34.178Z,13.97
2022-10-22T16:11:37.801Z,13.91
2022-10-22T16:14:39.984Z,13.85
2022-10-22T16:17:42.327Z,13.72
2022-10-22T16:20:44.838Z,13.60
2022-10-22T16:23:48.239Z,13.47
2022-10-22T16:26:50.602Z,13.38
2022-10-22T16:29:52.984Z,13.33
2022-10-22T16:32:55.081Z,13.31
2022-10-22T16:35:57.523Z,13.22
2022-10-22T16:38:59.629Z,13.22
2022-10-22T16:42:01.983Z,13.17
2022-10-22T16:45:04.439Z,13.05
2022-10-22T16:48:06.871Z,12.99
2022-10-22T16:51:12.589Z,12.93
2022-10-22T16:54:15.625Z,12.88
2022-10-22T16:57:17.714Z,12.78
2022-10-22T17:00:20.765Z,12.69
2022-10-22T17:03:24.614Z,12.67
2022-10-22T17:06:30.078Z,12.57
2022-10-22T17:09:32.149Z,12.38
2022-10-22T17:12:35.473Z,12.33
2022-10-22T17:15:37.586Z,12.32
2022-10-22T17:18:41.297Z,12.24
2022-10-22T17:21:43.531Z,12.20
2022-10-22T17:24:45.901Z,12.16
2022-10-22T17:27:48.382Z,12.17
2022-10-22T17:30:50.740Z,12.10
2022-10-22T17:33:54.815Z,12.03
2022-10-22T17:37:00.071Z,12.03
2022-10-22T17:40:03.095Z,12.01
2022-10-22T17:43:05.444Z,11.93
2022-10-22T17:46:10.726Z,11.87
2022-10-22T17:49:18.269Z,11.84
2022-10-22T17:52:21.087Z,11.84
2022-10-22T17:55:23.423Z,11.78
2022-10-22T17:58:25.485Z,11.79
2022-10-22T18:01:34.106Z,11.76
2022-10-22T18:04:36.521Z,11.75
2022-10-22T18:07:38.575Z,11.69
2022-10-22T18:10:41.386Z,11.65
2022-10-22T18:13:43.479Z,11.62
2022-10-22T18:16:46.704Z,11.56
2022-10-22T18:19:49.376Z,11.61
2022-10-22T18:22:53.856Z,11.61
2022-10-22T18:25:55.972Z,11.55
2022-10-22T18:28:59.108Z,11.50
2022-10-22T18:32:01.279Z,11.53
2022-10-22T18:35:04.228Z,11.48
2022-10-22T18:38:06.330Z,11.46
2022-10-22T18:41:10.080Z,11.44
2022-10-22T18:44:13.859Z,11.45
2022-10-22T18:47:16.269Z,11.48
2022-10-22T18:50:18.495Z,11.43
2022-10-22T18:53:20.910Z,11.44
2022-10-22T18:56:22.995Z,11.45
2022-10-22T18:59:26.842Z,11.47
2022-10-22T19:02:29.671Z,11.45
2022-10-22T19:05:32.138Z,11.43
2022-10-22T19:08:36.113Z,11.44
2022-10-22T19:11:38.514Z,11.44
2022-10-22T19:14:40.887Z,11.36
2022-10-22T19:17:45.620Z,11.37
2022-10-22T19:20:48.967Z,11.43
2022-10-22T19:23:51.708Z,11.39
2022-10-22T19:26:53.870Z,11.38
2022-10-22T19:29:56.254Z,11.23
2022-10-22T19:32:58.404Z,11.18
2022-10-22T19:36:09.239Z,11.16
2022-10-22T19:39:15.503Z,11.15
2022-10-22T19:42:17.855Z,11.16
2022-10-22T19:45:19.922Z,11.15
2022-10-22T19:48:22.309Z,11.08
2022-10-22T19:51:27.796Z,11.06
2022-10-22T19:54:30.171Z,10.98
2022-10-22T19:57:32.282Z,10.98
2022-10-22T20:00:37.074Z,10.98
2022-10-22T20:03:40.015Z,10.98
2022-10-22T20:06:42.623Z,10.91
2022-10-22T20:09:44.991Z,10.91
2022-10-22T20:12:47.073Z,10.95
2022-10-22T20:15:52.545Z,10.84
2022-10-22T20:18:54.639Z,10.82
2022-10-22T20:21:56.976Z,10.86
2022-10-22T20:24:59.048Z,10.82
2022-10-22T20:28:02.174Z,10.77
2022-10-22T20:31:16.843Z,10.77
2022-10-22T20:34:19.284Z,10.71
2022-10-22T20:37:21.453Z,10.65
2022-10-22T20:40:26.009Z,10.62
2022-10-22T20:43:28.230Z,10.53
2022-10-22T20:46:32.214Z,10.52
2022-10-22T20:49:34.339Z,10.52
2022-10-22T20:52:36.699Z,10.52
2022-10-22T20:55:38.816Z,10.51
2022-10-22T20:58:47.680Z,10.40
2022-10-22T21:01:52.318Z,10.34
2022-10-22T21:04:54.685Z,10.28
2022-10-22T21:07:58.390Z,10.24
2022-10-22T21:11:00.708Z,10.22
2022-10-22T21:14:04.330Z,10.21
2022-10-22T21:17:08.109Z,10.18
2022-10-22T21:23:13.528Z,10.08
2022-10-22T21:26:16.182Z,9.98
2022-10-22T21:29:19.756Z,9.94
2022-10-22T21:32:21.945Z,9.94
2022-10-22T21:35:24.832Z,9.87
2022-10-22T21:38:26.999Z,9.85
2022-10-22T21:41:29.445Z,9.90
2022-10-22T21:44:31.558Z,9.87
2022-10-22T21:47:33.970Z,9.94
2022-10-22T21:50:43.837Z,10.03
2022-10-22T21:53:46.581Z,9.99
2022-10-22T21:56:49.004Z,9.95
2022-10-22T21:59:51.356Z,9.94
2022-10-22T22:02:53.466Z,9.92
2022-10-22T22:06:00.600Z,9.88
2022-10-22T22:09:04.894Z,9.92
2022-10-22T22:12:07.822Z,9.97
2022-10-22T22:15:10.269Z,9.98
2022-10-22T22:18:12.601Z,9.98
2022-10-22T22:21:18.575Z,10.02
2022-10-22T22:24:20.936Z,10.02
2022-10-22T22:27:23.018Z,10.09
2022-10-22T22:30:25.794Z,10.12
2022-10-22T22:33:28.181Z,10.15
2022-10-22T22:36:36.795Z,10.13
2022-10-22T22:39:38.863Z,10.21
2022-10-22T22:42:41.231Z,10.21
2022-10-22T22:45:43.318Z,10.20
2022-10-22T22:48:49.188Z,10.28
2022-10-22T22:51:51.324Z,10.23
2022-10-22T22:54:53.674Z,10.27
2022-10-22T22:57:55.773Z,10.29
2022-10-22T23:01:29.151Z,10.28
2022-10-22T23:04:31.377Z,10.31
2022-10-22T23:07:33.758Z,10.26
2022-10-22T23:10:35.836Z,10.24
2022-10-22T23:13:39.416Z,10.20
2022-10-22T23:16:45.417Z,10.32
2022-10-22T23:19:47.765Z,10.29
2022-10-22T23:22:49.843Z,10.39
2022-10-22T23:25:54.898Z,10.39
2022-10-22T23:29:02.394Z,10.41
2022-10-22T23:32:11.789Z,10.48
2022-10-22T23:35:14.109Z,10.51
2022-10-22T23:38:16.615Z,10.42
2022-10-22T23:41:18.797Z,10.42
2022-10-22T23:44:23.003Z,10.57
2022-10-22T23:47:25.223Z,10.58
2022-10-22T23:50:27.747Z,10.63
2022-10-22T23:53:29.883Z,10.66
2022-10-22T23:56:33.339Z,10.65
2022-10-22T23:59:35.441Z,10.68
